Share

Al-Khusaria, Saudi Arabia

Al Dawadmi (OEDM) Elev 3025 ft | 24.45 °N, 44.12 °E | Change Station

Current weather conditions updated 4 hours ago

Mostly Cloudy
Mostly Cloudy
84 °F
Feels Like 84 °F
N
6
Wind Variable Wind from NNE
Sunrise 5:38 AM
Sunset 6:24 PM
Moon Waning Gibbous

Today is forecast to be nearly the same temperature as yesterday.

Pressure 29.95 in
Visibility 5.0 miles
Clouds Scattered Clouds 4000 ft
Mostly Cloudy 8000 ft
Dew Point 34 °F
Humidity 16%
Rainfall 0.00 in
Snow Depth Not available.
UV 0 out of 16
Pollen Not available.
Air Quality Not available.
Flu Activity Not available.
METAR OEDM 172000Z 03005KT 8000 SCT040 BKN080 29/01 Q1014

More Conditions Fewer Conditions

Pressure 29.95 in
Visibility 5.0 miles
Clouds Scattered Clouds 4000 ft
Mostly Cloudy 8000 ft
Dew Point 34 °F
Humidity 16%
Rainfall 0.00 in
Snow Depth Not available.
UV 0 out of 16
Pollen Not available.
Air Quality Not available.
Flu Activity Not available.
METAR OEDM 172000Z 03005KT 8000 SCT040 BKN080 29/01 Q1014

More Conditions Fewer Conditions

10-Day Forecast

Almanac

Astronomy

Apr. 18, 2014 Rise Set
Actual Time 5:38 AM AST 6:24 PM AST
Civil Twilight 5:14 AM AST 6:47 PM AST
Nautical Twilight 4:47 AM AST 7:14 PM AST
Astronomical Twilight 4:19 AM AST 7:42 PM AST
Moon 9:32 PM AST 7:54 AM AST
Length of Visible Light 13h 32m
Length of Day
12h 45m
Tomorrow will be 1m 17s longer.
Waning Gibbous, 92% of the Moon is Illuminated
Apr 17
Waning Gibbous
Apr 22
Last Quarter
Apr 29
New
May 6
First Quarter
May 14
Full

Yesterday's Extremes

Country Highs Country Lows

Community

  • Morning Light
    Morning Light
  • New Day
    New Day
  • Lake Michigan Sunrise
    Lake Michigan Sunrise
  • sunset from izmir, narl─▒dere
    sunset from izmir, narl─▒dere
  • oregon cherry
    oregon cherry

WunderPhotos

Upload Photos

1,702,188 photos uploaded!

WunderBlogs® & News

Nearby

Snow Depth

Not available.

Coastal Water Temperatures

Place Temperature
No Stations Reporting

Earthquake Activity

City Distance Mag. Time & Date
No recent earthquake activity has been reported nearby.
Minimum magnitude displayed is 2.5.

Nearby Weather Stations

There are no personal weather stations in this area.

What do you think?

We're not finished. Please let us know what you like, what you don't like, and what you are still missing.